Time;durP1;ratioP1;P1;durP2;ratioP2;P2;SDS_P1;SDS_P2;PMS_P1;PMS_P2;Temp;Humidity;BMP_temperature;BMP_pressure;BME280_temperature;BME280_humidity;BME280_pressure;Samples;Min_cycle;Max_cycle;Signal;HPM_P1;HPM_P2
2021/01/19 00:00:00;;;;;;;;;;;;;;;-13.21;67.50;100480.53;1751757;82;21192;-67
2021/01/19 00:02:28;;;;;;;;;;;;;;;-13.21;67.53;100479.28;1751783;82;20443;-67
2021/01/19 00:04:55;;;;;;;;;;;;;;;-13.23;67.53;100482.11;1751749;82;20196;-68
2021/01/19 00:07:23;;;;;;;;;;;;;;;-13.24;67.49;100475.38;1751728;82;20208;-68
2021/01/19 00:09:52;;;;;;;;;;;;;;;-13.22;67.51;100477.95;1751811;82;20446;-66
2021/01/19 00:12:20;;;;;;;;;;;;;;;-13.23;67.55;100474.98;1751779;82;22230;-66
2021/01/19 00:14:50;;;;;;;;;;;;;;;-13.23;67.49;100470.83;1751669;82;20161;-66
2021/01/19 00:17:19;;;;;;;;;;;;;;;-13.20;67.55;100473.88;1751803;82;20181;-66
2021/01/19 00:19:47;;;;;;;;;;;;;;;-13.18;67.60;100469.36;1751773;82;20435;-66
2021/01/19 00:22:15;;;;;;;;;;;;;;;-13.17;67.42;100473.59;1756813;81;20414;-68
2021/01/19 00:24:43;;;;;;;;;;;;;;;-13.17;67.17;100471.47;1756794;81;22326;-66
2021/01/19 00:27:12;;;;;;;;;;;;;;;-13.17;67.24;100476.09;1756763;81;21900;-67
2021/01/19 00:29:40;;;;;;;;;;;;;;;-13.17;67.19;100467.72;1756833;81;20502;-66
2021/01/19 00:32:08;;;;;;;;;;;;;;;-13.19;67.28;100456.77;1744646;81;20621;-68
2021/01/19 00:34:36;;;;;;;;;;;;;;;-13.20;67.33;100465.96;1738540;82;20416;-68
2021/01/19 00:37:04;;;;;;;;;;;;;;;-13.21;67.34;100456.73;1738483;82;21856;-68
2021/01/19 00:39:33;;;;;;;;;;;;;;;-13.25;67.44;100454.88;1738455;82;20643;-68
2021/01/19 00:42:01;;;;;;;;;;;;;;;-13.27;67.57;100458.09;1738506;82;20503;-68
2021/01/19 00:44:29;;;;;;;;;;;;;;;-13.29;67.58;100449.25;1738488;82;20157;-68
2021/01/19 00:46:57;;;;;;;;;;;;;;;-13.31;67.42;100451.23;1738573;82;20165;-68
2021/01/19 00:49:26;;;;;;;;;;;;;;;-13.34;67.51;100449.44;1738477;82;23445;-68
2021/01/19 00:51:56;;;;;;;;;;;;;;;-13.34;67.46;100445.68;1738502;82;20173;-68
2021/01/19 00:54:24;;;;;;;;;;;;;;;-13.32;67.70;100450.76;1738503;82;20459;-68
2021/01/19 00:56:52;;;;;;;;;;;;;;;-13.33;67.85;100438.62;1719665;82;20172;-68
2021/01/19 00:59:20;;;;;;;;;;;;;;;-13.32;67.92;100439.48;1738523;81;20595;-68
2021/01/19 01:01:48;;;;;;;;;;;;;;;-13.34;67.98;100439.42;1738469;82;21941;-68
2021/01/19 01:04:17;;;;;;;;;;;;;;;-13.36;68.01;100432.23;1738548;82;20192;-68
2021/01/19 01:06:44;;;;;;;;;;;;;;;-13.35;67.94;100433.08;1738501;82;20540;-68
2021/01/19 01:09:12;;;;;;;;;;;;;;;-13.35;67.97;100428.08;1738475;82;20439;-68
2021/01/19 01:11:42;;;;;;;;;;;;;;;-13.33;67.87;100431.51;1738537;82;20424;-67
2021/01/19 01:14:10;;;;;;;;;;;;;;;-13.34;67.90;100433.16;1738615;82;22084;-67
2021/01/19 01:16:39;;;;;;;;;;;;;;;-13.36;67.83;100433.48;1738517;82;20507;-67
2021/01/19 01:19:08;;;;;;;;;;;;;;;-13.38;68.12;100437.56;1738468;82;20451;-67
2021/01/19 01:21:39;;;;;;;;;;;;;;;-13.38;68.06;100441.31;1738497;82;20513;-67
2021/01/19 01:24:08;;;;;;;;;;;;;;;-13.39;68.11;100444.61;1738516;82;20424;-67
2021/01/19 01:26:36;;;;;;;;;;;;;;;-13.39;68.15;100442.50;1738479;82;21131;-67
2021/01/19 01:29:05;;;;;;;;;;;;;;;-13.37;68.15;100440.92;1738441;82;20451;-67
2021/01/19 01:31:34;;;;;;;;;;;;;;;-13.33;67.93;100440.28;1738524;81;20412;-68
2021/01/19 01:34:03;;;;;;;;;;;;;;;-13.31;67.91;100448.33;1738445;82;20161;-67
2021/01/19 01:36:40;;;;;;;;;;;;;;;-13.32;68.01;100447.00;1738492;82;20165;-68
2021/01/19 01:39:08;;;;;;;;;;;;;;;-13.32;68.08;100450.76;1738496;82;21368;-67
2021/01/19 01:41:36;;;;;;;;;;;;;;;-13.32;68.01;100452.02;1738435;82;20145;-68
2021/01/19 01:44:04;;;;;;;;;;;;;;;-13.33;67.89;100450.30;1738471;82;20506;-68
2021/01/19 01:46:36;;;;;;;;;;;;;;;-13.32;67.89;100455.77;1738412;82;20141;-67
2021/01/19 01:49:04;;;;;;;;;;;;;;;-13.31;67.76;100450.83;1738506;82;20562;-68
2021/01/19 01:51:33;;;;;;;;;;;;;;;-13.31;67.62;100458.74;1738388;82;21248;-68
2021/01/19 01:54:01;;;;;;;;;;;;;;;-13.33;67.67;100459.06;1738495;82;20523;-68
2021/01/19 01:56:29;;;;;;;;;;;;;;;-13.33;67.68;100461.56;1738411;82;20137;-68
2021/01/19 01:58:57;;;;;;;;;;;;;;;-13.32;67.59;100459.53;1738414;82;20157;-68
2021/01/19 02:01:26;;;;;;;;;;;;;;;-13.30;67.54;100467.58;1738477;82;20189;-68
2021/01/19 02:03:54;;;;;;;;;;;;;;;-13.30;67.54;100461.31;1738454;82;21122;-68
2021/01/19 02:06:22;;;;;;;;;;;;;;;-13.30;67.59;100456.70;1738436;82;20682;-68
2021/01/19 02:08:56;;;;;;;;;;;;;;;-13.29;67.53;100455.91;1738442;82;20494;-68
2021/01/19 02:11:48;;;;;;;;;;;;;;;-13.29;67.14;100454.66;1738528;82;20582;-68
2021/01/19 02:14:29;;;;;;;;;;;;;;;-13.34;66.91;100459.84;1738493;82;20185;-68
2021/01/19 02:17:25;;;;;;;;;;;;;;;-13.38;67.00;100457.99;1738515;82;22084;-68
2021/01/19 02:20:27;;;;;;;;;;;;;;;-13.39;66.97;100458.78;1738412;81;20622;-68
2021/01/19 02:23:16;;;;;;;;;;;;;;;-13.43;66.93;100461.53;1738483;82;20499;-68
2021/01/19 02:26:04;;;;;;;;;;;;;;;-13.46;67.04;100460.53;1721088;82;20185;-68
2021/01/19 02:28:43;;;;;;;;;;;;;;;-13.47;67.05;100459.67;1738517;82;20503;-68
2021/01/19 02:31:31;;;;;;;;;;;;;;;-13.47;67.09;100460.92;1720019;82;22051;-68
2021/01/19 02:34:21;;;;;;;;;;;;;;;-13.44;67.17;100458.95;1737214;82;20697;-68
2021/01/19 02:37:05;;;;;;;;;;;;;;;-13.45;67.26;100449.33;1738446;82;20511;-68
2021/01/19 02:39:43;;;;;;;;;;;;;;;-13.46;67.34;100448.87;1738542;82;20757;-68
2021/01/19 02:42:11;;;;;;;;;;;;;;;-13.45;67.27;100444.72;1735128;82;20407;-68
2021/01/19 02:44:40;;;;;;;;;;;;;;;-13.45;67.27;100444.72;1738571;82;22096;-68
2021/01/19 02:47:08;;;;;;;;;;;;;;;-13.44;67.30;100451.05;1738465;82;20503;-68
2021/01/19 02:49:36;;;;;;;;;;;;;;;-13.44;67.39;100443.54;1738448;82;20141;-68
2021/01/19 02:52:04;;;;;;;;;;;;;;;-13.47;67.53;100436.28;1738377;82;22047;-68
2021/01/19 02:54:33;;;;;;;;;;;;;;;-13.46;67.58;100433.84;1738457;81;20582;-68
2021/01/19 02:57:19;;;;;;;;;;;;;;;-13.43;67.50;100440.64;1738487;82;22184;-68
2021/01/19 03:00:11;;;;;;;;;;;;;;;-13.45;67.51;100443.07;1738422;81;20157;-66
2021/01/19 03:02:42;;;;;;;;;;;;;;;-13.51;67.44;100439.03;1738498;82;20224;-67
2021/01/19 03:05:10;;;;;;;;;;;;;;;-13.59;67.41;100441.17;1738414;82;20751;-67
2021/01/19 03:07:41;;;;;;;;;;;;;;;-13.66;67.44;100443.35;1738362;82;20181;-67
2021/01/19 03:10:10;;;;;;;;;;;;;;;-13.74;67.18;100448.39;1738465;82;21130;-67
2021/01/19 03:12:42;;;;;;;;;;;;;;;-13.85;67.16;100452.88;1738344;82;20141;-67
2021/01/19 03:15:16;;;;;;;;;;;;;;;-13.96;67.18;100447.36;1738153;82;32508;-66
2021/01/19 03:17:44;;;;;;;;;;;;;;;-14.05;67.19;100446.08;1738354;82;20212;-66
2021/01/19 03:20:13;;;;;;;;;;;;;;;-14.13;67.02;100446.09;1738396;82;20471;-65
2021/01/19 03:22:42;;;;;;;;;;;;;;;-14.25;66.85;100451.36;1738406;82;21351;-65
2021/01/19 03:25:10;;;;;;;;;;;;;;;-14.35;66.89;100451.28;1738472;82;20593;-65
2021/01/19 03:27:38;;;;;;;;;;;;;;;-14.44;66.79;100455.89;1738422;82;20142;-66
2021/01/19 03:30:09;;;;;;;;;;;;;;;-14.55;66.75;100460.34;1738388;82;20221;-67
2021/01/19 03:32:37;;;;;;;;;;;;;;;-14.65;66.80;100459.80;1738362;81;20137;-67
2021/01/19 03:35:06;;;;;;;;;;;;;;;-14.75;66.91;100470.10;1738517;82;22046;-66
2021/01/19 03:37:35;;;;;;;;;;;;;;;-14.86;66.83;100456.69;1738396;82;20138;-67
2021/01/19 03:40:05;;;;;;;;;;;;;;;-14.95;66.88;100467.45;1738394;82;20224;-67
2021/01/19 03:42:33;;;;;;;;;;;;;;;-15.04;66.88;100463.22;1738474;82;20161;-67
2021/01/19 03:45:01;;;;;;;;;;;;;;;-15.11;66.82;100462.81;1738436;82;20420;-67
2021/01/19 03:47:29;;;;;;;;;;;;;;;-15.21;66.66;100463.61;1738519;82;22072;-66
2021/01/19 03:49:57;;;;;;;;;;;;;;;-15.32;66.72;100465.92;1733775;82;20519;-67
2021/01/19 03:52:24;;;;;;;;;;;;;;;-15.41;66.70;100460.43;1736890;82;20388;-67
2021/01/19 03:54:52;;;;;;;;;;;;;;;-15.53;66.75;100454.38;1736879;82;21115;-67
2021/01/19 03:57:20;;;;;;;;;;;;;;;-15.65;66.68;100457.52;1736878;82;20500;-67
2021/01/19 03:59:48;;;;;;;;;;;;;;;-15.74;66.77;100454.91;1736590;82;22062;-68
2021/01/19 04:02:16;;;;;;;;;;;;;;;-15.82;66.88;100455.73;1724958;82;21833;-67
2021/01/19 04:04:44;;;;;;;;;;;;;;;-15.88;66.86;100456.63;1728282;82;20178;-67
2021/01/19 04:07:12;;;;;;;;;;;;;;;-15.92;66.83;100452.25;1722678;82;20616;-67
2021/01/19 04:09:42;;;;;;;;;;;;;;;-15.96;66.66;100460.33;1724410;82;20134;-67
2021/01/19 04:12:09;;;;;;;;;;;;;;;-16.02;66.57;100450.90;1722196;82;22423;-68
2021/01/19 04:14:38;;;;;;;;;;;;;;;-16.07;66.40;100448.92;1724817;82;20123;-67
2021/01/19 04:17:07;;;;;;;;;;;;;;;-16.13;66.27;100448.19;1725822;82;20547;-68
2021/01/19 04:19:35;;;;;;;;;;;;;;;-16.19;66.18;100451.58;1725155;82;20518;-66
2021/01/19 04:22:03;;;;;;;;;;;;;;;-16.25;66.24;100457.08;1728435;82;20134;-68
2021/01/19 04:24:31;;;;;;;;;;;;;;;-16.29;66.29;100452.69;1726729;82;21941;-67
2021/01/19 04:26:59;;;;;;;;;;;;;;;-16.33;66.19;100453.66;1725136;82;20557;-68
2021/01/19 04:29:27;;;;;;;;;;;;;;;-16.39;66.19;100448.36;1725275;82;20535;-68
2021/01/19 04:31:55;;;;;;;;;;;;;;;-16.43;66.12;100449.81;1726185;82;20468;-67
2021/01/19 04:34:23;;;;;;;;;;;;;;;-16.49;66.08;100458.18;1730775;82;20530;-68
2021/01/19 04:36:52;;;;;;;;;;;;;;;-16.57;66.06;100466.45;1724947;82;21196;-66
2021/01/19 04:39:19;;;;;;;;;;;;;;;-16.64;66.08;100469.39;1731507;82;20210;-68
2021/01/19 04:41:47;;;;;;;;;;;;;;;-16.70;66.13;100474.01;1724129;82;20555;-67
2021/01/19 04:44:15;;;;;;;;;;;;;;;-16.76;66.21;100469.91;1724079;82;20542;-67
2021/01/19 04:46:44;;;;;;;;;;;;;;;-16.80;66.30;100475.89;1723878;82;20182;-67
2021/01/19 04:49:12;;;;;;;;;;;;;;;-16.84;66.33;100477.73;1724750;82;21931;-67
2021/01/19 04:51:40;;;;;;;;;;;;;;;-16.87;66.36;100482.52;1731053;82;20487;-67
2021/01/19 04:54:09;;;;;;;;;;;;;;;-16.89;66.40;100488.27;1725550;82;20505;-67
2021/01/19 04:56:40;;;;;;;;;;;;;;;-16.89;66.40;100485.78;1737866;82;20111;-66
2021/01/19 04:59:12;;;;;;;;;;;;;;;-16.90;66.26;100485.30;1720945;82;20496;-67
2021/01/19 05:01:53;;;;;;;;;;;;;;;-16.93;66.27;100487.61;1739273;82;21071;-67
2021/01/19 05:04:43;;;;;;;;;;;;;;;-16.96;66.16;100481.20;1722323;82;20480;-67
2021/01/19 05:07:31;;;;;;;;;;;;;;;-16.96;66.09;100484.08;1739401;82;20155;-66
2021/01/19 05:10:13;;;;;;;;;;;;;;;-16.99;66.02;100479.77;1739299;82;20134;-66
2021/01/19 05:12:44;;;;;;;;;;;;;;;-17.02;66.09;100482.08;1739342;82;20424;-67
2021/01/19 05:15:13;;;;;;;;;;;;;;;-17.05;66.06;100478.16;1713891;83;22096;-67
2021/01/19 05:17:42;;;;;;;;;;;;;;;-17.08;66.02;100481.70;1714190;83;20594;-67
2021/01/19 05:20:11;;;;;;;;;;;;;;;-17.09;66.01;100486.59;1714227;83;20419;-66
2021/01/19 05:22:39;;;;;;;;;;;;;;;-17.12;66.02;100490.13;1739301;82;20139;-67
2021/01/19 05:25:08;;;;;;;;;;;;;;;-17.15;65.96;100490.81;1739394;82;20469;-68
2021/01/19 05:27:36;;;;;;;;;;;;;;;-17.19;65.91;100487.66;1739296;82;21260;-67
2021/01/19 05:30:05;;;;;;;;;;;;;;;-17.21;66.05;100489.22;1723835;82;20485;-67
2021/01/19 05:32:40;;;;;;;;;;;;;;;-17.19;66.12;100486.41;1723365;82;20111;-68
2021/01/19 05:35:18;;;;;;;;;;;;;;;-17.23;65.96;100490.37;1724966;82;20170;-68
2021/01/19 05:37:57;;;;;;;;;;;;;;;-17.28;65.92;100487.98;1727582;82;20461;-67
2021/01/19 05:40:25;;;;;;;;;;;;;;;-17.32;65.95;100482.72;1722846;82;22032;-67
2021/01/19 05:42:56;;;;;;;;;;;;;;;-17.34;66.05;100492.96;1725134;82;20493;-68
2021/01/19 05:45:24;;;;;;;;;;;;;;;-17.37;66.00;100489.90;1729417;82;20599;-68
2021/01/19 05:47:52;;;;;;;;;;;;;;;-17.35;65.92;100488.75;1716741;82;20514;-67
2021/01/19 05:50:20;;;;;;;;;;;;;;;-17.39;65.81;100494.30;1713209;82;20367;-67
2021/01/19 05:52:48;;;;;;;;;;;;;;;-17.43;65.80;100491.14;1709049;84;22033;-67
2021/01/19 05:55:19;;;;;;;;;;;;;;;-17.47;65.96;100487.98;1711479;81;20235;-68
2021/01/19 05:57:49;;;;;;;;;;;;;;;-17.50;65.93;100488.66;1726743;81;20469;-67
2021/01/19 06:00:17;;;;;;;;;;;;;;;-17.52;65.94;100491.44;1730395;82;20506;-68
2021/01/19 06:02:45;;;;;;;;;;;;;;;-17.53;66.05;100500.05;1708774;84;20139;-68
2021/01/19 06:05:15;;;;;;;;;;;;;;;-17.53;66.30;100503.39;1732226;81;22026;-69
2021/01/19 06:07:47;;;;;;;;;;;;;;;-17.51;66.30;100507.22;1708887;82;20219;-68
2021/01/19 06:10:20;;;;;;;;;;;;;;;-17.51;66.15;100509.33;1711888;82;20584;-68
2021/01/19 06:12:48;;;;;;;;;;;;;;;-17.49;66.03;100514.39;1721648;82;20191;-69
2021/01/19 06:15:21;;;;;;;;;;;;;;;-17.50;65.89;100511.05;1695966;83;20553;-68
2021/01/19 06:17:50;;;;;;;;;;;;;;;-17.49;65.87;100506.94;1722453;82;21213;-68
2021/01/19 06:20:19;;;;;;;;;;;;;;;-17.50;65.74;100512.67;1717873;82;20703;-69
2021/01/19 06:22:47;;;;;;;;;;;;;;;-17.51;65.73;100509.70;1722101;81;20191;-66
2021/01/19 06:25:16;;;;;;;;;;;;;;;-17.52;65.56;100516.31;1720024;82;20173;-66
2021/01/19 06:27:44;;;;;;;;;;;;;;;-17.55;65.50;100515.73;1711521;83;20206;-67
2021/01/19 06:30:14;;;;;;;;;;;;;;;-17.53;65.50;100526.16;1724188;83;22220;-67
2021/01/19 06:32:46;;;;;;;;;;;;;;;-17.51;65.63;100524.63;1729919;82;20509;-67
2021/01/19 06:35:19;;;;;;;;;;;;;;;-17.48;65.58;100532.30;1731034;82;20183;-66
2021/01/19 06:37:51;;;;;;;;;;;;;;;-17.46;65.55;100532.00;1744883;80;20581;-69
2021/01/19 06:40:20;;;;;;;;;;;;;;;-17.44;65.61;100533.83;1745136;82;20430;-67
2021/01/19 06:43:02;;;;;;;;;;;;;;;-17.39;65.62;100531.24;1753342;82;21207;-67
2021/01/19 06:45:30;;;;;;;;;;;;;;;-17.34;65.56;100532.78;1724063;83;20498;-66
2021/01/19 06:48:03;;;;;;;;;;;;;;;-17.31;65.67;100534.22;1724217;83;20165;-66
2021/01/19 06:50:36;;;;;;;;;;;;;;;-17.27;65.53;100538.62;1724217;83;20154;-70
2021/01/19 06:53:32;;;;;;;;;;;;;;;-17.23;65.46;100545.13;1724265;83;20483;-68
2021/01/19 06:56:09;;;;;;;;;;;;;;;-17.18;65.38;100541.64;1722740;83;21366;-65
2021/01/19 06:58:56;;;;;;;;;;;;;;;-17.12;65.27;100544.90;1724724;80;20616;-69
2021/01/19 07:01:28;;;;;;;;;;;;;;;-17.07;65.37;100546.91;1731904;80;20537;-67
2021/01/19 07:04:21;;;;;;;;;;;;;;;-16.99;65.32;100547.38;1735898;82;20164;-71
2021/01/19 07:07:11;;;;;;;;;;;;;;;-16.90;65.29;100551.68;1727490;82;20150;-70
2021/01/19 07:10:04;;;;;;;;;;;;;;;-16.84;65.08;100558.28;1729785;80;20770;-69
2021/01/19 07:12:48;;;;;;;;;;;;;;;-16.79;65.06;100553.58;1725652;82;20879;-69
2021/01/19 07:15:16;;;;;;;;;;;;;;;-16.73;64.88;100556.41;1740924;82;20501;-71
2021/01/19 07:17:51;;;;;;;;;;;;;;;-16.69;64.65;100556.70;1728719;82;20553;-68
2021/01/19 07:20:29;;;;;;;;;;;;;;;-16.66;64.52;100557.27;1744096;82;20283;-69
2021/01/19 07:23:20;;;;;;;;;;;;;;;-16.58;64.54;100560.66;1871432;76;20231;-67
2021/01/19 07:25:59;;;;;;;;;;;;;;;-16.57;64.63;100554.05;1844978;77;20143;-68
2021/01/19 07:28:27;;;;;;;;;;;;;;;-16.45;64.84;100553.53;1834334;77;21447;-68
2021/01/19 07:30:58;;;;;;;;;;;;;;;-16.37;64.65;100556.06;1832241;77;20195;-70
2021/01/19 07:33:26;;;;;;;;;;;;;;;-16.28;64.48;100553.26;1847450;77;20122;-70
2021/01/19 07:35:54;;;;;;;;;;;;;;;-16.18;64.28;100553.03;1829451;77;20408;-67
2021/01/19 07:38:23;;;;;;;;;;;;;;;-16.07;64.10;100549.53;1837093;77;20140;-69
2021/01/19 07:40:50;;;;;;;;;;;;;;;-15.97;63.93;100548.02;1842436;77;22335;-69
2021/01/19 07:43:21;;;;;;;;;;;;;;;-15.81;63.80;100542.27;1826053;77;20397;-68
2021/01/19 07:45:54;;;;;;;;;;;;;;;-15.66;63.66;100541.89;1841257;77;20117;-67
2021/01/19 07:48:32;;;;;;;;;;;;;;;-15.47;63.34;100542.86;1843392;77;20162;-69
2021/01/19 07:51:16;;;;;;;;;;;;;;;-15.33;63.21;100539.48;1836205;77;20508;-67
2021/01/19 07:53:49;;;;;;;;;;;;;;;-15.23;62.65;100547.57;1830711;77;21294;-69
2021/01/19 07:56:28;;;;;;;;;;;;;;;-15.16;62.47;100549.98;1831937;77;20177;-71
2021/01/19 07:58:57;;;;;;;;;;;;;;;-15.03;62.60;100550.27;1837639;77;20531;-67
2021/01/19 08:01:36;;;;;;;;;;;;;;;-14.93;62.12;100554.59;1840158;77;20483;-68
2021/01/19 08:04:09;;;;;;;;;;;;;;;-14.87;62.06;100552.42;1842309;77;20170;-70
2021/01/19 08:06:37;;;;;;;;;;;;;;;-14.77;61.85;100554.12;1838687;77;21100;-66
2021/01/19 08:09:11;;;;;;;;;;;;;;;-14.66;61.78;100552.67;1852836;77;20900;-66
2021/01/19 08:11:40;;;;;;;;;;;;;;;-14.52;61.48;100559.64;1853609;77;20162;-65
2021/01/19 08:14:10;;;;;;;;;;;;;;;-14.36;61.24;100557.09;1840087;77;20764;-67
2021/01/19 08:16:43;;;;;;;;;;;;;;;-14.21;60.90;100556.64;1854018;77;20380;-65
2021/01/19 08:19:15;;;;;;;;;;;;;;;-14.08;60.77;100551.87;1814648;77;21196;-67
2021/01/19 08:21:50;;;;;;;;;;;;;;;-13.95;60.48;100558.32;1834140;76;20245;-67
2021/01/19 08:24:22;;;;;;;;;;;;;;;-13.84;60.25;100555.96;1823097;76;20876;-70
2021/01/19 08:26:50;;;;;;;;;;;;;;;-13.74;60.19;100553.13;1823111;76;20516;-69
2021/01/19 08:29:21;;;;;;;;;;;;;;;-13.61;59.88;100556.70;1766180;79;20175;-70
2021/01/19 08:31:59;;;;;;;;;;;;;;;-13.53;59.25;100554.55;1824175;76;22451;-67
2021/01/19 08:34:32;;;;;;;;;;;;;;;-13.49;59.47;100553.52;1822257;76;20519;-68
2021/01/19 08:37:02;;;;;;;;;;;;;;;-13.39;59.47;100553.95;1822878;76;20244;-66
2021/01/19 08:39:30;;;;;;;;;;;;;;;-13.29;59.39;100554.47;1826914;76;20154;-66
2021/01/19 08:42:00;;;;;;;;;;;;;;;-13.21;60.37;100549.43;1826476;76;20194;-67
2021/01/19 08:44:30;;;;;;;;;;;;;;;-13.15;59.81;100547.15;1818987;76;22259;-69
2021/01/19 08:47:00;;;;;;;;;;;;;;;-13.17;59.36;100554.16;1825061;78;20138;-71
2021/01/19 08:49:35;;;;;;;;;;;;;;;-13.17;59.21;100550.41;1828739;78;20261;-67
2021/01/19 08:52:06;;;;;;;;;;;;;;;-13.16;59.10;100549.61;1829309;78;20131;-71
2021/01/19 08:54:35;;;;;;;;;;;;;;;-13.16;59.53;100548.36;1834657;77;20173;-71
2021/01/19 08:57:03;;;;;;;;;;;;;;;-13.19;59.39;100547.82;1809084;78;21338;-66
2021/01/19 08:59:35;;;;;;;;;;;;;;;-13.23;59.52;100548.89;1824305;78;20147;-66
2021/01/19 09:02:03;;;;;;;;;;;;;;;-13.19;59.34;100549.08;1827838;76;20474;-68
2021/01/19 09:04:32;;;;;;;;;;;;;;;-13.19;59.39;100541.95;1848851;76;20210;-64
2021/01/19 09:07:05;;;;;;;;;;;;;;;-13.17;59.45;100545.39;1841354;78;20103;-66
2021/01/19 09:09:33;;;;;;;;;;;;;;;-13.16;59.50;100546.71;1809574;79;21186;-67
2021/01/19 09:12:01;;;;;;;;;;;;;;;-13.11;59.42;100539.77;1812739;78;21151;-67
2021/01/19 09:14:29;;;;;;;;;;;;;;;-13.11;59.53;100538.13;1840787;78;20127;-69
2021/01/19 09:16:57;;;;;;;;;;;;;;;-13.13;59.44;100532.19;1840415;78;20182;-67
2021/01/19 09:19:25;;;;;;;;;;;;;;;-13.16;59.21;100530.82;1841133;78;20542;-67
2021/01/19 09:21:53;;;;;;;;;;;;;;;-13.18;59.27;100531.14;1852057;76;21369;-69
2021/01/19 09:24:21;;;;;;;;;;;;;;;-13.15;59.52;100534.62;1876712;76;20236;-74
2021/01/19 09:27:00;;;;;;;;;;;;;;;-13.12;59.52;100539.31;1815825;76;20144;-71
2021/01/19 09:29:32;;;;;;;;;;;;;;;-13.16;59.31;100529.17;1815222;79;20145;-69
2021/01/19 09:32:02;;;;;;;;;;;;;;;-13.15;59.35;100530.86;1825279;76;20955;-70
2021/01/19 09:34:35;;;;;;;;;;;;;;;-13.10;59.39;100528.96;1840089;77;21177;-69
2021/01/19 09:37:05;;;;;;;;;;;;;;;-13.05;59.26;100525.02;1834519;77;20174;-71
2021/01/19 09:39:35;;;;;;;;;;;;;;;-13.01;59.57;100526.48;1799666;79;20186;-73
2021/01/19 09:42:06;;;;;;;;;;;;;;;-12.96;59.39;100527.95;1810271;79;20200;-71
2021/01/19 09:44:36;;;;;;;;;;;;;;;-12.93;59.21;100520.18;1815630;77;20681;-72
2021/01/19 09:47:07;;;;;;;;;;;;;;;-12.91;59.26;100519.86;1816242;76;21383;-68
2021/01/19 09:49:37;;;;;;;;;;;;;;;-12.92;59.22;100519.39;1815196;79;20204;-66
2021/01/19 09:52:12;;;;;;;;;;;;;;;-12.95;59.53;100519.25;1785056;79;20157;-70
2021/01/19 09:54:42;;;;;;;;;;;;;;;-12.95;59.43;100524.66;1818445;76;20274;-68
2021/01/19 09:57:10;;;;;;;;;;;;;;;-12.99;59.30;100519.90;1848708;77;20531;-70
2021/01/19 09:59:42;;;;;;;;;;;;;;;-13.04;59.21;100512.56;1828997;76;20843;-68
2021/01/19 10:02:10;;;;;;;;;;;;;;;-13.08;59.31;100514.47;1789151;76;20262;-65
2021/01/19 10:04:39;;;;;;;;;;;;;;;-13.11;59.40;100509.31;1817453;77;20571;-68
2021/01/19 10:07:08;;;;;;;;;;;;;;;-13.12;59.28;100510.48;1831112;76;20161;-67
2021/01/19 10:09:42;;;;;;;;;;;;;;;-13.13;59.45;100504.63;1839347;77;20186;-69
2021/01/19 10:12:10;;;;;;;;;;;;;;;-13.11;59.83;100505.95;1806534;79;21077;-69
2021/01/19 10:14:40;;;;;;;;;;;;;;;-13.09;59.74;100502.72;1841744;77;20468;-69
2021/01/19 10:17:10;;;;;;;;;;;;;;;-13.07;59.80;100503.66;1842188;77;20146;-69
2021/01/19 10:19:39;;;;;;;;;;;;;;;-13.05;59.68;100504.58;1837496;77;20113;-69
2021/01/19 10:22:09;;;;;;;;;;;;;;;-13.05;59.73;100495.81;1851180;76;20143;-67
2021/01/19 10:24:48;;;;;;;;;;;;;;;-12.98;59.79;100505.33;1863718;76;21178;-68
2021/01/19 10:27:19;;;;;;;;;;;;;;;-12.97;59.70;100499.92;1808657;79;20165;-68
2021/01/19 10:29:49;;;;;;;;;;;;;;;-12.96;59.58;100496.23;1829654;76;20174;-68
2021/01/19 10:32:17;;;;;;;;;;;;;;;-12.90;59.49;100501.91;1810138;78;20629;-67
2021/01/19 10:34:49;;;;;;;;;;;;;;;-12.88;59.54;100498.69;1835476;78;20155;-68
2021/01/19 10:37:18;;;;;;;;;;;;;;;-12.88;59.32;100501.20;1837653;77;21339;-69
2021/01/19 10:39:51;;;;;;;;;;;;;;;-12.87;59.39;100499.55;1841191;78;20171;-69
2021/01/19 10:42:24;;;;;;;;;;;;;;;-12.83;59.31;100506.02;1842162;78;20221;-69
2021/01/19 10:44:58;;;;;;;;;;;;;;;-12.74;59.41;100499.67;1824603;76;20163;-68
2021/01/19 10:47:26;;;;;;;;;;;;;;;-12.68;59.21;100504.56;1820938;78;20916;-67
2021/01/19 10:49:55;;;;;;;;;;;;;;;-12.68;59.17;100499.55;1808673;78;21195;-65
2021/01/19 10:52:23;;;;;;;;;;;;;;;-12.67;59.32;100495.00;1809713;79;20141;-65
2021/01/19 10:54:56;;;;;;;;;;;;;;;-12.62;59.16;100496.05;1810358;78;20180;-68
2021/01/19 10:57:25;;;;;;;;;;;;;;;-12.61;58.86;100500.67;1811939;78;20661;-70
2021/01/19 10:59:53;;;;;;;;;;;;;;;-12.66;58.66;100490.84;1840768;78;20123;-74
2021/01/19 11:02:24;;;;;;;;;;;;;;;-12.72;58.54;100488.06;1834568;76;21192;-72
2021/01/19 11:04:52;;;;;;;;;;;;;;;-12.72;58.84;100488.92;1808766;78;20292;-67
2021/01/19 11:07:20;;;;;;;;;;;;;;;-12.73;58.79;100477.56;1808190;79;20137;-70
2021/01/19 11:09:49;;;;;;;;;;;;;;;-12.75;58.67;100480.01;1809205;79;20137;-67
2021/01/19 11:12:17;;;;;;;;;;;;;;;-12.75;58.63;100467.47;1809047;79;20185;-70
2021/01/19 11:14:45;;;;;;;;;;;;;;;-12.76;58.54;100467.41;1808511;79;21180;-70
2021/01/19 11:17:13;;;;;;;;;;;;;;;-12.79;58.49;100478.16;1814932;78;20150;-69
2021/01/19 11:19:43;;;;;;;;;;;;;;;-12.83;58.62;100476.33;1842520;78;20151;-71
2021/01/19 11:22:12;;;;;;;;;;;;;;;-12.83;58.81;100472.17;1845867;76;20381;-70
2021/01/19 11:24:40;;;;;;;;;;;;;;;-12.79;58.94;100471.88;1866316;77;20109;-70
2021/01/19 11:27:08;;;;;;;;;;;;;;;-12.76;59.09;100454.47;1857139;76;22157;-68
2021/01/19 11:29:36;;;;;;;;;;;;;;;-12.73;59.35;100455.00;1816517;77;20288;-69
2021/01/19 11:32:04;;;;;;;;;;;;;;;-12.72;59.31;100457.97;1824883;77;20480;-68
2021/01/19 11:34:33;;;;;;;;;;;;;;;-12.73;59.24;100449.98;1845752;77;20568;-69
2021/01/19 11:37:01;;;;;;;;;;;;;;;-12.75;59.32;100454.94;1822394;77;20177;-69
2021/01/19 11:39:29;;;;;;;;;;;;;;;-12.71;59.44;100455.92;1812093;79;21183;-71
2021/01/19 11:41:58;;;;;;;;;;;;;;;-12.69;59.08;100446.82;1814140;77;20686;-67
2021/01/19 11:44:28;;;;;;;;;;;;;;;-12.74;58.81;100446.63;1844465;77;20187;-67
2021/01/19 11:46:56;;;;;;;;;;;;;;;-12.82;59.00;100450.47;1844588;77;20202;-68
2021/01/19 11:49:24;;;;;;;;;;;;;;;-12.87;59.04;100444.00;1845074;77;20476;-67
2021/01/19 11:51:53;;;;;;;;;;;;;;;-12.86;59.15;100442.35;1834245;76;22241;-69
2021/01/19 11:54:21;;;;;;;;;;;;;;;-12.86;59.22;100440.70;1812478;77;20196;-68
2021/01/19 11:56:49;;;;;;;;;;;;;;;-12.87;59.19;100440.23;1827711;76;20403;-66
2021/01/19 11:59:20;;;;;;;;;;;;;;;-12.91;59.23;100449.67;1812619;77;20157;-66
2021/01/19 12:01:57;;;;;;;;;;;;;;;-12.95;59.33;100444.45;1812840;77;20459;-69
2021/01/19 12:04:26;;;;;;;;;;;;;;;-12.99;59.53;100438.84;1821000;77;21231;-67
2021/01/19 12:06:54;;;;;;;;;;;;;;;-13.04;59.26;100444.04;1821300;78;20107;-70
2021/01/19 12:09:23;;;;;;;;;;;;;;;-13.08;59.49;100440.94;1837049;77;20190;-70
2021/01/19 12:11:53;;;;;;;;;;;;;;;-13.11;59.70;100439.15;1832473;77;20191;-68
2021/01/19 12:14:21;;;;;;;;;;;;;;;-13.09;59.71;100441.33;1822969;77;20291;-69
2021/01/19 12:16:56;;;;;;;;;;;;;;;-13.06;59.94;100442.72;1821876;77;21186;-69
2021/01/19 12:19:25;;;;;;;;;;;;;;;-13.05;60.04;100441.93;1832811;77;20581;-69
2021/01/19 12:21:55;;;;;;;;;;;;;;;-13.02;59.92;100448.73;1831868;77;20125;-69
2021/01/19 12:24:23;;;;;;;;;;;;;;;-13.04;59.91;100456.17;1819242;77;20260;-72
2021/01/19 12:26:54;;;;;;;;;;;;;;;-13.07;59.78;100457.69;1793271;79;20402;-68
2021/01/19 12:29:23;;;;;;;;;;;;;;;-13.07;60.02;100458.94;1806304;79;20561;-64
2021/01/19 12:31:51;;;;;;;;;;;;;;;-13.06;60.03;100457.75;1816917;79;20158;-65
2021/01/19 12:34:19;;;;;;;;;;;;;;;-13.05;59.90;100458.61;1815947;78;20285;-69
2021/01/19 12:36:47;;;;;;;;;;;;;;;-13.05;59.75;100452.34;1815393;79;20856;-69
2021/01/19 12:39:17;;;;;;;;;;;;;;;-13.10;59.74;100462.56;1812277;79;20552;-70
2021/01/19 12:41:45;;;;;;;;;;;;;;;-13.16;59.84;100460.66;1811039;79;22214;-70
2021/01/19 12:44:15;;;;;;;;;;;;;;;-13.23;59.89;100459.56;1815673;79;20160;-70
2021/01/19 12:46:43;;;;;;;;;;;;;;;-13.28;59.87;100458.88;1812298;79;20109;-69